< Typhoon 202101 2021 Season Typhoon 202103 >
Typhoon 202102 (SURIGAE)
General InformationTrack Information on Google MapsDetailed Wind InformationForecast History on Google MapsAccess Analytics MapList of All Images || NewsDisaster Info.WeblogTrackbackTyphoon FrontTwiphoonTyphoon Now!Typhoon ImaginationJMA Disaster Info. XMLResourceGoogle EarthGE AnimationAtom FeedGeoJSON
Detalied Best Track (Time Zone = UTC)
Year Month Day Hour Lat. Long. Pressure (hPa) Wind (kt) Class Image Chart
2021 4 12 18 7.6 138.0 1006 0 2 Image Chart
2021 4 13 00 7.6 137.8 1006 0 2 Image Chart
2021 4 13 06 7.7 137.6 1004 0 2 Image Chart
2021 4 13 12 7.8 137.4 1004 0 2 Image Chart
2021 4 13 18 7.9 137.2 1002 35 3 Image Chart
2021 4 14 00 8.1 137.0 1000 40 3 Image Chart
2021 4 14 06 8.3 136.9 998 40 3 Image Chart
2021 4 14 12 8.4 136.7 994 45 3 Image Chart
2021 4 14 18 8.5 136.5 994 45 3 Image Chart
2021 4 15 00 8.6 136.3 990 50 4 Image Chart
2021 4 15 06 8.6 136.1 985 55 4 Image Chart
2021 4 15 12 8.6 135.8 975 65 5 Image Chart
2021 4 15 18 8.7 135.3 970 70 5 Image Chart
2021 4 16 00 8.9 134.6 965 75 5 Image Chart
2021 4 16 06 9.2 133.8 955 80 5 Image Chart
2021 4 16 12 9.5 133.1 950 85 5 Image Chart
2021 4 16 18 10.0 132.1 940 90 5 Image Chart
2021 4 17 00 10.7 131.1 935 95 5 Image Chart
2021 4 17 06 11.4 130.1 925 100 5 Image Chart
2021 4 17 12 12.1 129.2 905 110 5 Image Chart
2021 4 17 18 12.6 128.4 895 120 5 Image Chart
2021 4 18 00 13.1 127.7 895 120 5 Image Chart
2021 4 18 06 13.4 127.1 900 115 5 Image Chart
2021 4 18 12 13.6 126.8 910 105 5 Image Chart
2021 4 18 18 13.9 126.5 910 105 5 Image Chart
2021 4 19 00 14.2 126.3 910 105 5 Image Chart
2021 4 19 06 14.6 126.3 920 100 5 Image Chart
2021 4 19 12 14.9 126.3 920 100 5 Image Chart
2021 4 19 18 15.2 126.3 930 95 5 Image Chart
2021 4 20 00 15.5 126.1 935 90 5 Image Chart
2021 4 20 06 15.9 126.0 935 90 5 Image Chart
2021 4 20 12 16.4 125.9 935 90 5 Image Chart
2021 4 20 18 17.0 125.5 935 90 5 Image Chart
2021 4 21 00 17.5 125.2 935 90 5 Image Chart
2021 4 21 06 18.2 125.0 935 90 5 Image Chart
2021 4 21 12 18.8 124.8 935 90 5 Image Chart
2021 4 21 18 19.3 124.8 945 85 5 Image Chart
2021 4 22 00 19.7 124.9 945 85 5 Image Chart
2021 4 22 06 20.3 125.4 945 85 5 Image Chart
2021 4 22 12 20.9 126.2 950 80 5 Image Chart
2021 4 22 18 21.6 127.2 960 75 5 Image Chart
2021 4 23 00 22.8 128.5 970 65 5 Image Chart
2021 4 23 06 23.1 128.9 975 60 4 Image Chart
2021 4 23 12 23.4 129.8 980 55 4 Image Chart
2021 4 23 18 23.4 130.5 985 50 4 Image Chart
2021 4 24 00 23.0 131.2 985 50 4 Image Chart
2021 4 24 06 22.7 131.8 990 45 3 Image Chart
2021 4 24 12 22.2 132.8 994 40 3 Image Chart
2021 4 24 18 21.7 134.1 996 35 3 Image Chart
2021 4 25 00 21.8 136.2 996 0 6 Image Chart
2021 4 25 06 22.3 138.2 992 0 6 Image Chart
2021 4 25 12 23.9 141.0 992 0 6 Image Chart
2021 4 25 18 25.7 144.9 990 0 6 Image Chart
2021 4 26 00 28.9 149.4 988 0 6 Image Chart
2021 4 26 06 33.5 153.5 982 0 6 Image Chart
2021 4 26 12 37.1 156.5 970 0 6 Image Chart
2021 4 26 18 40.1 157.7 950 0 6 Image Chart
2021 4 27 00 42.5 159.3 944 0 6 Image Chart
2021 4 27 06 44.0 161.1 948 0 6 Image Chart
2021 4 27 12 45.8 162.3 952 0 6 Image Chart
2021 4 27 18 46.0 164.1 956 0 6 Image Chart
2021 4 28 00 46.4 165.8 964 0 6 Image Chart
2021 4 28 06 46.8 167.2 968 0 6 Image Chart
2021 4 28 12 47.2 168.7 972 0 6 Image Chart
2021 4 28 18 47.5 169.1 976 0 6 Image Chart
2021 4 29 00 47.4 169.9 980 0 6 Image Chart
2021 4 29 06 47.3 170.4 984 0 6 Image Chart
2021 4 29 12 47.2 171.1 988 0 6 Image Chart
2021 4 29 18 46.7 172.2 990 0 6 Image Chart
2021 4 30 00 46.2 173.5 992 0 6 Image Chart
2021 4 30 06 45.2 176.3 994 0 6 Image Chart
2021 4 30 12 44.6 179.8 998 0 6 Image Chart
2021 4 30 18 44.6 184.1 998 0 6 Image Chart
Japan Meteorological Agency Best Track Data | Correction Date : 2021-07-15
< Typhoon 202101 2021 Season Typhoon 202103 >

Help